| time (UTC) | temp F | wind direction | speed knots | gust knots | rain 1hr in | rain 24hr in | rain mn in | humidity % | barometer mb |
| 20260901133104 | 79 | 339 | 1.7 | 3.5 | 0.00 | 0.23 | 0.00 | 97 | 1017.6 |
| 20260901131603 | 78 | 342 | 0.0 | 3.5 | 0.00 | 0.23 | 0.00 | 100 | 1017.6 |
| 20260901130106 | 77 | 359 | 0.9 | 2.6 | 0.00 | 0.23 | 0.00 | 100 | 1017.6 |
| 20260901124602 | 76 | 337 | 1.7 | 3.5 | 0.00 | 0.23 | 0.00 | 100 | 1017.7 |
| 20260901123101 | 76 | 316 | 0.0 | 4.3 | 0.00 | 0.23 | 0.00 | 100 | 1017.8 |
| 20260901121613 | 75 | 0 | 0.0 | 0.0 | 0.00 | 0.23 | 0.00 | 100 | 1017.7 |
| 20260901120124 | 76 | 333 | 0.0 | 2.6 | 0.00 | 0.23 | 0.00 | 100 | 1017.7 |
| 20260901114559 | 75 | 0 | 0.0 | 0.0 | 0.00 | 0.23 | 0.00 | 100 | 1017.6 |
| 20260901113103 | 74 | 0 | 0.0 | 0.0 | 0.00 | 0.23 | 0.00 | 100 | 1017.2 |
| 20260901111609 | 74 | 0 | 0.0 | 0.0 | 0.00 | 0.23 | 0.00 | 100 | 1017.2 |
| 20260901110057 | 74 | 0 | 0.0 | 0.0 | 0.00 | 0.23 | 0.00 | 100 | 1017.2 |
| 20260901104603 | 74 | 0 | 0.0 | 0.0 | 0.00 | 0.23 | 0.00 | 100 | 1017.3 |
| 20260901103124 | 74 | 0 | 0.0 | 0.0 | 0.00 | 0.23 | 0.00 | 100 | 1017.2 |
| 20260901101602 | 74 | 0 | 0.0 | 0.0 | 0.00 | 0.23 | 0.00 | 100 | 1017.2 |
| 20260901100106 | 74 | 0 | 0.0 | 0.0 | 0.00 | 0.23 | 0.00 | 100 | 1017.1 |
| 20260901094600 | 73 | 0 | 0.0 | 0.9 | 0.00 | 0.23 | 0.00 | 100 | 1017.1 |
| 20260901093125 | 73 | 0 | 0.0 | 0.0 | 0.00 | 0.23 | 0.00 | 100 | 1017.0 |
| 20260901091608 | 72 | 0 | 0.0 | 0.0 | 0.00 | 0.23 | 0.00 | 100 | 1017.0 |
| 20260901090101 | 72 | 0 | 0.0 | 0.0 | 0.00 | 0.23 | 0.00 | 100 | 1017.1 |
| 20260901084558 | 72 | 0 | 0.0 | 0.0 | 0.00 | 0.23 | 0.00 | 100 | 1017.2 |
| 20260901083056 | 72 | 0 | 0.0 | 0.0 | 0.00 | 0.23 | 0.00 | 100 | 1017.3 |
| 20260901081615 | 72 | 0 | 0.0 | 0.0 | 0.00 | 0.23 | 0.00 | 100 | 1017.2 |
| 20260901080103 | 73 | 0 | 0.0 | 0.0 | 0.00 | 0.23 | 0.00 | 100 | 1017.2 |
| 20260901074559 | 73 | 0 | 0.0 | 0.0 | 0.00 | 0.23 | 0.00 | 100 | 1017.3 |
| 20260901073104 | 73 | 0 | 0.0 | 0.9 | 0.00 | 0.23 | 0.00 | 100 | 1017.4 |
| 20260901071606 | 73 | 0 | 0.0 | 0.0 | 0.00 | 0.23 | 0.00 | 100 | 1017.5 |
| 20260901070105 | 73 | 0 | 0.0 | 0.0 | 0.00 | 0.23 | 0.00 | 100 | 1017.4 |
| 20260901064605 | 73 | 0 | 0.0 | 0.0 | 0.00 | 0.23 | 0.00 | 100 | 1017.6 |
| 20260901063100 | 73 | 0 | 0.0 | 0.0 | 0.00 | 0.23 | 0.00 | 100 | 1017.8 |
| 20260901061600 | 73 | 0 | 0.0 | 0.0 | 0.00 | 0.23 | 0.00 | 100 | 1017.9 |
| 20260901060106 | 73 | 0 | 0.0 | 0.0 | 0.00 | 0.23 | 0.00 | 100 | 1018.1 |
| 20260901054603 | 73 | 0 | 0.0 | 0.0 | 0.00 | 0.23 | 0.00 | 100 | 1018.2 |
| 20260901053122 | 73 | 0 | 0.0 | 0.0 | 0.00 | 0.23 | 0.00 | 100 | 1018.4 |
| 20260901051557 | 73 | 0 | 0.0 | 0.0 | 0.00 | 0.23 | 0.00 | 100 | 1018.5 |
| 20260901050104 | 73 | 0 | 0.0 | 0.0 | 0.00 | 0.23 | 0.00 | 100 | 1018.5 |
| 20260901044558 | 73 | 0 | 0.0 | 0.0 | 0.00 | 0.23 | 0.00 | 100 | 1018.3 |
| 20260901043125 | 73 | 0 | 0.0 | 0.0 | 0.00 | 0.23 | 0.00 | 100 | 1018.3 |
| 20260901041610 | 73 | 0 | 0.0 | 0.0 | 0.00 | 0.23 | 0.00 | 100 | 1018.1 |
| 20260901040106 | 73 | 0 | 0.0 | 0.0 | 0.00 | 0.23 | 0.00 | 100 | 1018.2 |
| 20260901034607 | 73 | 0 | 0.0 | 0.0 | 0.00 | 0.23 | 0.23 | 100 | 1018.2 |
| 20260901033108 | 73 | 0 | 0.0 | 0.0 | 0.00 | 0.23 | 0.23 | 100 | 1018.2 |
| 20260901031605 | 73 | 0 | 0.0 | 0.0 | 0.00 | 0.23 | 0.23 | 100 | 1018.2 |
| 20260901030103 | 73 | 0 | 0.0 | 0.0 | 0.00 | 0.23 | 0.23 | 100 | 1018.3 |
| 20260901024607 | 73 | 0 | 0.0 | 0.0 | 0.00 | 0.23 | 0.23 | 100 | 1018.4 |
| 20260901023102 | 73 | 0 | 0.0 | 0.9 | 0.00 | 0.23 | 0.23 | 100 | 1018.5 |
| 20260901021609 | 73 | 0 | 0.0 | 0.0 | 0.00 | 0.23 | 0.23 | 100 | 1018.8 |
| 20260901020109 | 73 | 0 | 0.0 | 0.0 | 0.00 | 0.23 | 0.23 | 100 | 1019.0 |
| 20260901014605 | 72 | 0 | 0.0 | 0.0 | 0.00 | 0.23 | 0.23 | 100 | 1019.1 |
| 20260901013107 | 73 | 0 | 0.0 | 0.0 | 0.00 | 0.23 | 0.23 | 100 | 1019.1 |
| 20260901011603 | 72 | 0 | 0.0 | 0.0 | 0.00 | 0.23 | 0.23 | 100 | 1019.0 |
| 20260901010120 | 72 | 0 | 0.0 | 0.0 | 0.00 | 0.23 | 0.23 | 100 | 1018.9 |
| 20260901004617 | 73 | 0 | 0.0 | 0.0 | 0.00 | 0.23 | 0.23 | 100 | 1018.7 |
| 20260901003103 | 73 | 0 | 0.0 | 0.0 | 0.00 | 0.23 | 0.23 | 100 | 1018.6 |
| 20260901001608 | 73 | 0 | 0.0 | 0.0 | 0.00 | 0.23 | 0.23 | 100 | 1018.7 |
| 20260901000108 | 73 | 0 | 0.0 | 0.0 | 0.01 | 0.23 | 0.23 | 100 | 1018.6 |
| 20260831234605 | 73 | 0 | 0.0 | 0.0 | 0.01 | 0.23 | 0.23 | 100 | 1018.6 |
| 20260831233101 | 73 | 0 | 0.0 | 0.0 | 0.01 | 0.23 | 0.23 | 100 | 1018.6 |
| 20260831231557 | 73 | 0 | 0.0 | 0.0 | 0.04 | 0.23 | 0.23 | 99 | 1018.7 |
| 20260831230108 | 73 | 0 | 0.0 | 0.9 | 0.04 | 0.22 | 0.22 | 99 | 1018.9 |
| 20260831224601 | 74 | 297 | 0.9 | 1.7 | 0.04 | 0.22 | 0.22 | 99 | 1019.0 |
| 20260831223055 | 74 | 0 | 0.0 | 0.0 | 0.05 | 0.22 | 0.22 | 99 | 1019.0 |
| 20260831221608 | 73 | 0 | 0.0 | 0.9 | 0.03 | 0.19 | 0.19 | 99 | 1019.2 |
| 20260831220128 | 74 | 338 | 0.9 | 2.6 | 0.05 | 0.18 | 0.18 | 99 | 1019.5 |
| 20260831214603 | 74 | 283 | 0.0 | 2.6 | 0.10 | 0.18 | 0.18 | 99 | 1019.4 |
| 20260831213106 | 75 | 339 | 0.9 | 1.7 | 0.10 | 0.17 | 0.17 | 98 | 1019.3 |
| 20260831211604 | 76 | 255 | 0.0 | 0.9 | 0.13 | 0.16 | 0.16 | 99 | 1019.3 |
| 20260831210103 | 77 | 0 | 0.0 | 0.0 | 0.13 | 0.13 | 0.13 | 98 | 1019.3 |
| 20260831204604 | 77 | 0 | 0.0 | 0.0 | 0.08 | 0.08 | 0.08 | 98 | 1019.4 |
| 20260831203135 | 77 | 0 | 0.0 | 0.9 | 0.07 | 0.07 | 0.07 | 96 | 1019.4 |
| 20260831201606 | 79 | 0 | 0.0 | 0.9 | 0.03 | 0.03 | 0.03 | 94 | 1018.8 |
| 20260831200106 | 82 | 0 | 0.0 | 0.9 | 0.00 | 0.00 | 0.00 | 87 | 1018.9 |
| 20260831194611 | 84 | 0 | 0.0 | 2.6 | 0.00 | 0.00 | 0.00 | 84 | 1018.8 |
| 20260831193102 | 83 | 153 | 0.0 | 2.6 | 0.00 | 0.00 | 0.00 | 86 | 1018.6 |
| 20260831191605 | 82 | 127 | 0.0 | 2.6 | 0.00 | 0.00 | 0.00 | 87 | 1018.7 |
| 20260831190138 | 83 | 0 | 0.0 | 1.7 | 0.00 | 0.00 | 0.00 | 85 | 1018.7 |
| 20260831184603 | 84 | 0 | 0.0 | 2.6 | 0.00 | 0.00 | 0.00 | 85 | 1018.7 |
| 20260831183059 | 83 | 162 | 0.0 | 2.6 | 0.00 | 0.00 | 0.00 | 87 | 1018.8 |
| 20260831181606 | 83 | 0 | 0.0 | 2.6 | 0.00 | 0.00 | 0.00 | 87 | 1019.1 |
| 20260831174602 | 82 | 115 | 0.9 | 1.7 | 0.00 | 0.00 | 0.00 | 87 | 1019.2 |
| 20260831173115 | 83 | 248 | 0.0 | 2.6 | 0.00 | 0.00 | 0.00 | 85 | 1019.3 |
| 20260831171607 | 83 | 249 | 0.0 | 4.3 | 0.00 | 0.00 | 0.00 | 87 | 1019.3 |
| 20260831170110 | 83 | 158 | 0.0 | 2.6 | 0.00 | 0.00 | 0.00 | 87 | 1019.2 |
| 20260831164604 | 84 | 146 | 0.9 | 2.6 | 0.00 | 0.00 | 0.00 | 85 | 1019.2 |
| 20260831163105 | 84 | 0 | 0.9 | 2.6 | 0.00 | 0.00 | 0.00 | 88 | 1019.6 |
| 20260831161607 | 84 | 152 | 0.9 | 2.6 | 0.00 | 0.00 | 0.00 | 86 | 1019.8 |
| 20260831160135 | 84 | 141 | 0.0 | 3.5 | 0.00 | 0.00 | 0.00 | 86 | 1019.6 |
| 20260831154628 | 84 | 158 | 0.9 | 3.5 | 0.00 | 0.00 | 0.00 | 87 | 1019.7 |
| 20260831153132 | 83 | 125 | 0.9 | 3.5 | 0.00 | 0.00 | 0.00 | 88 | 1019.8 |
| 20260831151602 | 83 | 93 | 0.0 | 1.7 | 0.00 | 0.00 | 0.00 | 89 | 1019.7 |
| 20260831150055 | 82 | 0 | 0.0 | 1.7 | 0.00 | 0.00 | 0.00 | 88 | 1019.8 |
| 20260831144607 | 82 | 127 | 0.0 | 2.6 | 0.00 | 0.00 | 0.00 | 90 | 1019.5 |
| 20260831143102 | 81 | 125 | 0.0 | 2.6 | 0.00 | 0.00 | 0.00 | 92 | 1019.7 |
| 20260831141601 | 80 | 0 | 0.0 | 0.9 | 0.00 | 0.00 | 0.00 | 94 | 1019.6 |
| 20260831140108 | 79 | 260 | 0.0 | 2.6 | 0.00 | 0.00 | 0.00 | 97 | 1019.5 |
| 20260831134609 | 78 | 300 | 0.9 | 3.5 | 0.00 | 0.00 | 0.00 | 98 | 1019.7 |